Time;durP1;ratioP1;P1;durP2;ratioP2;P2;SDS_P1;SDS_P2;PMS_P1;PMS_P2;Temp;Humidity;BMP_temperature;BMP_pressure;BME280_temperature;BME280_humidity;BME280_pressure;Samples;Min_cycle;Max_cycle;Signal;HPM_P1;HPM_P2
2022/11/05 00:10:06;;;;;;;1.60;1.20;;;9.10;98.20;;;;;;4991097;28;20452;-77
2022/11/05 00:18:03;;;;;;;1.60;1.20;;;9.00;98.20;;;;;;5008200;28;20486;-77
2022/11/05 00:20:30;;;;;;;1.60;1.13;;;9.00;98.20;;;;;;4986786;28;20492;-77
2022/11/05 00:25:53;;;;;;;1.60;1.20;;;8.90;98.20;;;;;;4987441;28;20499;-75
2022/11/05 00:28:22;;;;;;;1.60;1.20;;;8.80;98.20;;;;;;4976294;28;20484;-78
2022/11/05 00:30:49;;;;;;;1.60;1.20;;;8.80;98.20;;;;;;4978864;28;20457;-77
2022/11/05 00:33:15;;;;;;;1.63;1.20;;;8.80;98.20;;;;;;5016386;28;20459;-77
2022/11/05 00:35:42;;;;;;;1.60;1.30;;;8.70;98.20;;;;;;4987883;28;20465;-77
2022/11/05 00:38:09;;;;;;;1.60;1.20;;;8.70;98.20;;;;;;5008603;28;20493;-76
2022/11/05 00:40:36;;;;;;;1.60;1.20;;;8.70;98.20;;;;;;4987650;28;20488;-77
2022/11/05 00:45:49;;;;;;;1.60;1.23;;;8.60;98.20;;;;;;4983420;28;20443;-77
2022/11/05 00:51:00;;;;;;;1.60;1.23;;;8.50;98.20;;;;;;4980414;28;20956;-75
2022/11/05 00:53:27;;;;;;;1.60;1.30;;;8.50;98.20;;;;;;5013634;28;20476;-77
2022/11/05 00:55:54;;;;;;;1.60;1.20;;;8.40;98.20;;;;;;4979790;28;20468;-77
2022/11/05 00:58:22;;;;;;;1.67;1.30;;;8.40;98.20;;;;;;5016463;28;20496;-77
2022/11/05 01:00:52;;;;;;;1.60;1.20;;;8.40;98.20;;;;;;4974629;28;21103;-77
2022/11/05 01:03:21;;;;;;;1.60;1.30;;;8.40;98.20;;;;;;5014349;28;20470;-76
2022/11/05 01:05:51;;;;;;;1.60;1.30;;;8.40;98.20;;;;;;5003324;28;20460;-77
2022/11/05 01:08:19;;;;;;;1.60;1.20;;;8.40;98.20;;;;;;5000895;28;20573;-77
2022/11/05 01:10:48;;;;;;;1.60;1.27;;;8.30;98.20;;;;;;4971924;28;20465;-77
2022/11/05 01:13:17;;;;;;;1.60;1.30;;;8.30;98.20;;;;;;4988890;28;20483;-77
2022/11/05 01:15:43;;;;;;;1.60;1.20;;;8.30;98.20;;;;;;5011752;28;20455;-77
2022/11/05 01:18:12;;;;;;;1.60;1.20;;;8.30;98.20;;;;;;4992699;28;20489;-76
2022/11/05 01:20:38;;;;;;;1.60;1.30;;;8.30;98.20;;;;;;4972648;28;20497;-77
2022/11/05 01:23:05;;;;;;;1.60;1.20;;;8.20;98.20;;;;;;4995159;28;20479;-77
2022/11/05 01:25:32;;;;;;;1.60;1.30;;;8.20;98.20;;;;;;4991449;28;20468;-77
2022/11/05 01:27:59;;;;;;;1.60;1.30;;;8.20;98.20;;;;;;5010194;28;20479;-77
2022/11/05 01:30:26;;;;;;;1.60;1.20;;;8.20;98.20;;;;;;4992066;28;20518;-76
2022/11/05 01:32:52;;;;;;;1.60;1.20;;;8.20;98.20;;;;;;5003457;28;20514;-76
2022/11/05 01:35:20;;;;;;;1.60;1.30;;;8.20;98.20;;;;;;4993217;28;20472;-78
2022/11/05 01:37:47;;;;;;;1.60;1.30;;;8.10;98.20;;;;;;4997668;28;20538;-78
2022/11/05 01:40:17;;;;;;;1.60;1.20;;;8.10;98.20;;;;;;4975477;28;20489;-77
2022/11/05 01:42:44;;;;;;;1.60;1.30;;;8.10;98.20;;;;;;4993553;28;20483;-77
2022/11/05 01:45:14;;;;;;;1.60;1.20;;;8.10;98.20;;;;;;4991837;28;20469;-77
2022/11/05 01:47:58;;;;;;;1.60;1.23;;;8.10;98.20;;;;;;4995158;28;20993;-77
2022/11/05 01:50:37;;;;;;;1.60;1.20;;;8.00;98.20;;;;;;4972883;28;20472;-77
2022/11/05 01:53:09;;;;;;;1.60;1.30;;;8.10;98.20;;;;;;4993676;28;20863;-77
2022/11/05 01:55:39;;;;;;;1.60;1.20;;;8.00;98.20;;;;;;4990646;28;20766;-77
2022/11/05 01:58:09;;;;;;;1.67;1.30;;;8.00;98.20;;;;;;5010982;28;21012;-77
2022/11/05 02:00:36;;;;;;;1.60;1.30;;;8.00;98.20;;;;;;4991201;28;20487;-77
2022/11/05 02:03:03;;;;;;;1.60;1.27;;;8.00;98.20;;;;;;4999253;28;20488;-77
2022/11/05 02:05:33;;;;;;;1.60;1.30;;;8.00;98.20;;;;;;4990278;28;20467;-77
2022/11/05 02:08:00;;;;;;;1.63;1.30;;;8.00;98.20;;;;;;5009564;28;20487;-77
2022/11/05 02:10:28;;;;;;;1.60;1.20;;;8.00;98.20;;;;;;4991741;28;20461;-77
2022/11/05 02:12:55;;;;;;;1.60;1.30;;;8.00;98.20;;;;;;5005924;28;20487;-76
2022/11/05 02:15:28;;;;;;;1.60;1.30;;;8.00;98.20;;;;;;5010320;28;20997;-77
2022/11/05 02:18:08;;;;;;;1.60;1.20;;;8.00;98.20;;;;;;4997077;28;20520;-76
2022/11/05 02:20:43;;;;;;;1.60;1.30;;;8.00;98.20;;;;;;4971046;28;20490;-76
2022/11/05 02:23:53;;;;;;;1.60;1.20;;;8.10;98.20;;;;;;5008598;28;20516;-77
2022/11/05 02:26:49;;;;;;;1.60;1.20;;;8.10;98.20;;;;;;4983737;28;20503;-76
2022/11/05 02:30:10;;;;;;;1.60;1.30;;;8.10;98.20;;;;;;4986459;28;20478;-76
2022/11/05 02:32:57;;;;;;;1.60;1.20;;;8.10;98.20;;;;;;4993859;28;20557;-77
2022/11/05 02:35:41;;;;;;;1.60;1.20;;;8.10;98.20;;;;;;5011390;28;20456;-76
2022/11/05 02:38:13;;;;;;;1.60;1.30;;;8.10;98.20;;;;;;4993537;28;21086;-78
2022/11/05 02:40:49;;;;;;;1.60;1.30;;;8.00;98.20;;;;;;4972018;28;20486;-78
2022/11/05 02:43:25;;;;;;;1.60;1.30;;;8.00;98.20;;;;;;4995009;28;20981;-78
2022/11/05 02:46:19;;;;;;;1.60;1.20;;;8.00;98.20;;;;;;4982773;28;20461;-77
2022/11/05 02:48:55;;;;;;;1.60;1.20;;;8.00;98.20;;;;;;4994685;28;21021;-78
2022/11/05 02:51:31;;;;;;;1.60;1.27;;;7.90;98.20;;;;;;4973698;28;20485;-78
2022/11/05 02:54:02;;;;;;;1.60;1.20;;;7.90;98.20;;;;;;5008800;28;20468;-78
2022/11/05 02:56:32;;;;;;;1.60;1.30;;;8.00;98.20;;;;;;4982297;28;20550;-78
2022/11/05 02:58:59;;;;;;;1.60;1.20;;;8.00;98.20;;;;;;4984934;28;21122;-75
2022/11/05 03:01:26;;;;;;;1.60;1.20;;;8.00;98.20;;;;;;4982492;28;20483;-78
2022/11/05 03:03:57;;;;;;;1.60;1.30;;;8.10;98.20;;;;;;4999966;28;20990;-78
2022/11/05 03:06:48;;;;;;;1.60;1.20;;;8.10;98.20;;;;;;4984048;28;20480;-77
2022/11/05 03:09:37;;;;;;;2.90;2.70;;;8.10;98.20;;;;;;4968487;28;20778;-76
2022/11/05 03:12:14;;;;;;;1.60;1.30;;;8.20;98.20;;;;;;4989650;28;20864;-78
2022/11/05 03:14:47;;;;;;;1.60;1.20;;;8.20;98.20;;;;;;5013601;28;20470;-77
2022/11/05 03:17:29;;;;;;;1.60;1.30;;;8.20;98.20;;;;;;4999827;28;20496;-78
2022/11/05 03:20:07;;;;;;;1.60;1.20;;;8.20;98.20;;;;;;4975265;28;20462;-77
2022/11/05 03:22:38;;;;;;;1.60;1.20;;;8.20;98.20;;;;;;4996587;28;20489;-77
2022/11/05 03:25:12;;;;;;;1.60;1.20;;;8.20;98.20;;;;;;4991935;28;21023;-76
2022/11/05 03:27:44;;;;;;;1.60;1.20;;;8.20;98.20;;;;;;4993291;28;20502;-77
2022/11/05 03:30:12;;;;;;;1.60;1.40;;;8.10;98.20;;;;;;4971523;28;20469;-78
2022/11/05 03:32:43;;;;;;;1.60;1.20;;;8.10;98.20;;;;;;4994460;28;20475;-77
2022/11/05 03:35:16;;;;;;;1.63;1.30;;;8.00;98.20;;;;;;5010302;28;20475;-77
2022/11/05 03:37:47;;;;;;;1.60;1.20;;;8.00;98.20;;;;;;4997676;28;20488;-78
2022/11/05 03:40:16;;;;;;;1.60;1.20;;;7.90;98.20;;;;;;4979713;28;20460;-78
2022/11/05 03:42:48;;;;;;;1.60;1.20;;;7.90;98.20;;;;;;4998903;28;20855;-77
2022/11/05 03:45:18;;;;;;;1.60;1.20;;;7.80;98.20;;;;;;5010339;28;20471;-77
2022/11/05 03:47:49;;;;;;;1.60;1.30;;;7.80;98.20;;;;;;4998172;28;20491;-78
2022/11/05 03:50:22;;;;;;;1.60;1.20;;;7.80;98.20;;;;;;4990820;28;20526;-78
2022/11/05 03:52:52;;;;;;;1.60;1.23;;;7.80;98.20;;;;;;4994079;28;20480;-78
2022/11/05 03:55:22;;;;;;;1.60;1.20;;;7.70;98.20;;;;;;4989324;28;20457;-77
2022/11/05 03:57:53;;;;;;;1.60;1.30;;;7.70;98.20;;;;;;4992124;28;20493;-78
2022/11/05 04:00:22;;;;;;;1.60;1.20;;;7.70;98.20;;;;;;4990319;28;20935;-76
2022/11/05 04:02:49;;;;;;;1.70;1.30;;;7.60;98.20;;;;;;4991619;28;21005;-77
2022/11/05 04:05:16;;;;;;;1.60;1.20;;;7.60;98.20;;;;;;4990882;28;20463;-78
2022/11/05 04:13:28;;;;;;;1.60;1.30;;;7.50;98.20;;;;;;4969035;28;20472;-77
2022/11/05 04:18:41;;;;;;;1.60;1.30;;;7.50;98.20;;;;;;5010905;28;20980;-78
2022/11/05 04:24:10;;;;;;;1.60;1.33;;;7.40;98.20;;;;;;4999692;28;20832;-78
2022/11/05 04:26:38;;;;;;;1.60;1.30;;;7.40;98.20;;;;;;4982532;28;20495;-77
2022/11/05 04:31:50;;;;;;;1.60;1.30;;;7.40;98.20;;;;;;4975418;28;20500;-78
2022/11/05 04:34:17;;;;;;;1.60;1.30;;;7.40;98.20;;;;;;5015137;28;20492;-79
2022/11/05 04:36:45;;;;;;;1.67;1.40;;;7.40;98.20;;;;;;4997590;28;20492;-76
2022/11/05 04:39:13;;;;;;;1.60;1.30;;;7.30;98.20;;;;;;4989292;28;20561;-77
2022/11/05 04:41:40;;;;;;;1.60;1.30;;;7.30;98.20;;;;;;4977210;28;20492;-77
2022/11/05 04:44:06;;;;;;;1.60;1.30;;;7.30;98.20;;;;;;5019662;28;20834;-79
2022/11/05 04:46:33;;;;;;;2.10;1.90;;;7.30;98.20;;;;;;5002740;28;20490;-78
2022/11/05 04:49:00;;;;;;;1.60;1.20;;;7.30;98.20;;;;;;4993860;28;20488;-78
2022/11/05 04:51:27;;;;;;;1.60;1.30;;;7.30;98.20;;;;;;4976999;28;20483;-78
2022/11/05 04:53:53;;;;;;;1.60;1.20;;;7.30;98.20;;;;;;5012024;28;20869;-78
2022/11/05 04:56:23;;;;;;;1.63;1.30;;;7.30;98.20;;;;;;4986026;28;20483;-77
2022/11/05 04:58:50;;;;;;;1.60;1.40;;;7.30;98.20;;;;;;4995431;28;20491;-78
2022/11/05 05:01:19;;;;;;;1.60;1.30;;;7.40;98.20;;;;;;4985467;28;20484;-75
2022/11/05 05:03:47;;;;;;;1.67;1.20;;;7.40;98.20;;;;;;5017359;28;20551;-77
2022/11/05 05:06:13;;;;;;;1.70;1.40;;;7.40;98.20;;;;;;5001854;28;20572;-77
2022/11/05 05:08:40;;;;;;;1.60;1.30;;;7.40;98.20;;;;;;4997556;28;20481;-78
2022/11/05 05:11:09;;;;;;;1.60;1.30;;;7.40;98.20;;;;;;4970468;28;20469;-78
2022/11/05 05:13:37;;;;;;;1.70;1.30;;;7.30;98.20;;;;;;5003568;28;20465;-77
2022/11/05 05:16:05;;;;;;;1.60;1.30;;;7.30;98.20;;;;;;4984585;28;20465;-78
2022/11/05 05:18:32;;;;;;;1.60;1.30;;;7.30;98.20;;;;;;5005415;28;20531;-78
2022/11/05 05:23:44;;;;;;;1.60;1.20;;;7.20;98.20;;;;;;4997082;28;21529;-77
2022/11/05 05:26:11;;;;;;;1.70;1.30;;;7.20;98.20;;;;;;4987926;28;20486;-76
2022/11/05 05:28:39;;;;;;;1.60;1.30;;;7.10;98.20;;;;;;5014775;28;20576;-78
2022/11/05 05:31:06;;;;;;;1.60;1.30;;;7.10;98.20;;;;;;4982749;28;20830;-79
2022/11/05 05:33:33;;;;;;;1.60;1.20;;;7.10;98.20;;;;;;4995967;28;20728;-77
2022/11/05 05:36:01;;;;;;;1.60;1.30;;;7.00;98.20;;;;;;4982194;28;20469;-76
2022/11/05 05:38:28;;;;;;;1.60;1.23;;;7.00;98.20;;;;;;4995496;28;20493;-77
2022/11/05 05:40:58;;;;;;;1.60;1.30;;;7.00;98.20;;;;;;4983386;28;20483;-77
2022/11/05 05:43:24;;;;;;;1.63;1.30;;;7.00;98.20;;;;;;5020766;28;20465;-78
2022/11/05 05:45:53;;;;;;;1.60;1.30;;;6.90;98.20;;;;;;4982968;28;20480;-77
2022/11/05 05:48:19;;;;;;;1.70;1.40;;;6.90;98.20;;;;;;5020843;28;20496;-78
2022/11/05 05:50:46;;;;;;;1.60;1.30;;;6.90;98.20;;;;;;4990167;28;20489;-78
2022/11/05 05:53:13;;;;;;;3.10;2.90;;;6.80;98.20;;;;;;5010979;28;20571;-76
2022/11/05 05:55:40;;;;;;;1.60;1.30;;;6.80;98.20;;;;;;4991515;28;20465;-78
2022/11/05 05:58:07;;;;;;;1.60;1.30;;;6.80;98.20;;;;;;5011981;28;20490;-78
2022/11/05 06:00:33;;;;;;;1.60;1.30;;;6.70;98.20;;;;;;4990890;28;21744;-75
2022/11/05 06:03:02;;;;;;;1.60;1.30;;;6.70;98.20;;;;;;4989386;28;20477;-78
2022/11/05 06:05:28;;;;;;;1.67;1.30;;;6.70;98.20;;;;;;4991835;28;20472;-77
2022/11/05 06:07:56;;;;;;;1.70;1.30;;;6.70;98.20;;;;;;5012308;28;20578;-77
2022/11/05 06:10:23;;;;;;;1.60;1.30;;;6.60;98.20;;;;;;4991920;28;20469;-78
2022/11/05 06:12:50;;;;;;;1.60;1.30;;;6.60;98.20;;;;;;5008419;28;20557;-78
2022/11/05 06:15:17;;;;;;;1.60;1.30;;;6.60;98.20;;;;;;4991909;28;20461;-77
2022/11/05 06:17:44;;;;;;;1.70;1.40;;;6.50;98.20;;;;;;5010797;28;20491;-78
2022/11/05 06:20:13;;;;;;;1.70;1.40;;;6.50;98.20;;;;;;4993459;28;20475;-78
2022/11/05 06:22:40;;;;;;;1.60;1.30;;;6.50;98.20;;;;;;5008838;28;20510;-78
2022/11/05 06:25:08;;;;;;;1.60;1.30;;;6.50;98.20;;;;;;4993434;28;20457;-79
2022/11/05 06:27:36;;;;;;;1.60;1.20;;;6.50;98.20;;;;;;4991315;28;20496;-78
2022/11/05 06:30:03;;;;;;;1.60;1.27;;;6.50;98.20;;;;;;4991041;28;20472;-77
2022/11/05 06:32:30;;;;;;;1.60;1.30;;;6.50;98.20;;;;;;5006486;28;20845;-79
2022/11/05 06:34:57;;;;;;;1.63;1.40;;;6.50;98.20;;;;;;4995803;28;20496;-77
2022/11/05 06:37:26;;;;;;;1.60;1.30;;;6.50;98.20;;;;;;5002690;28;20518;-78
2022/11/05 06:39:55;;;;;;;1.60;1.30;;;6.50;98.20;;;;;;4996464;28;20473;-78
2022/11/05 06:42:24;;;;;;;1.63;1.33;;;6.50;98.20;;;;;;5002019;28;20884;-76
2022/11/05 06:44:51;;;;;;;1.63;1.30;;;6.50;98.20;;;;;;4995889;28;20460;-77
2022/11/05 06:47:18;;;;;;;1.60;1.30;;;6.50;98.20;;;;;;5002677;28;20825;-76
2022/11/05 06:49:45;;;;;;;1.60;1.30;;;6.50;98.20;;;;;;4996490;28;20496;-76
2022/11/05 06:52:13;;;;;;;1.70;1.30;;;6.50;98.20;;;;;;4996754;28;20482;-77
2022/11/05 06:54:42;;;;;;;1.70;1.40;;;6.50;98.20;;;;;;4998552;28;20549;-77
2022/11/05 06:57:11;;;;;;;1.67;1.37;;;6.50;98.20;;;;;;5001636;28;20479;-76
2022/11/05 06:59:38;;;;;;;1.70;1.40;;;6.50;98.20;;;;;;4996630;28;20489;-78
2022/11/05 07:02:05;;;;;;;1.70;1.40;;;6.50;98.20;;;;;;4997566;28;20521;-77
2022/11/05 07:04:32;;;;;;;1.60;1.30;;;6.50;98.20;;;;;;4998868;28;20465;-77
2022/11/05 07:07:00;;;;;;;1.67;1.30;;;6.50;98.20;;;;;;4996484;28;20493;-77
2022/11/05 07:09:26;;;;;;;1.70;1.30;;;6.50;98.20;;;;;;5000874;28;20543;-77
2022/11/05 07:11:57;;;;;;;1.60;1.30;;;6.60;98.20;;;;;;4995566;28;20495;-77
2022/11/05 07:14:24;;;;;;;1.60;1.23;;;6.60;98.20;;;;;;4999464;28;20464;-77
2022/11/05 07:16:50;;;;;;;1.60;1.40;;;6.60;98.20;;;;;;4995026;28;20573;-77
2022/11/05 07:19:17;;;;;;;1.60;1.30;;;6.60;98.20;;;;;;5004072;28;20485;-76
2022/11/05 07:21:44;;;;;;;1.67;1.40;;;6.70;98.20;;;;;;4993105;28;20479;-77
2022/11/05 07:24:13;;;;;;;1.60;1.30;;;6.70;98.20;;;;;;5004222;28;20867;-76
2022/11/05 07:26:39;;;;;;;1.70;1.37;;;6.80;98.20;;;;;;4979957;28;20484;-76
2022/11/05 07:29:08;;;;;;;1.60;1.30;;;6.90;98.20;;;;;;4992023;28;20477;-77
2022/11/05 07:31:35;;;;;;;1.63;1.33;;;6.90;98.20;;;;;;4978249;28;20520;-77
2022/11/05 07:34:02;;;;;;;1.60;1.20;;;7.00;98.20;;;;;;4992287;28;20468;-78
2022/11/05 07:36:29;;;;;;;1.70;1.40;;;7.10;98.20;;;;;;4989966;28;20486;-77
2022/11/05 07:38:56;;;;;;;1.67;1.40;;;7.20;98.20;;;;;;5008952;28;20834;-77
2022/11/05 07:41:23;;;;;;;1.60;1.30;;;7.30;98.20;;;;;;4986981;28;20984;-77
2022/11/05 07:43:49;;;;;;;1.63;1.30;;;7.40;98.20;;;;;;5009573;28;20461;-77
2022/11/05 07:46:17;;;;;;;1.70;1.30;;;7.50;98.20;;;;;;4985466;28;20482;-77
2022/11/05 07:48:44;;;;;;;1.67;1.30;;;7.50;98.20;;;;;;5011838;28;20495;-77
2022/11/05 07:51:11;;;;;;;1.70;1.40;;;7.60;98.20;;;;;;4982868;28;21014;-77
2022/11/05 07:53:38;;;;;;;1.63;1.30;;;7.70;98.20;;;;;;5008617;28;20457;-77
2022/11/05 07:56:05;;;;;;;1.63;1.20;;;7.80;98.20;;;;;;4982630;28;20958;-78
2022/11/05 07:58:34;;;;;;;1.60;1.30;;;8.00;98.20;;;;;;5013916;28;20485;-77
2022/11/05 08:01:00;;;;;;;1.60;1.30;;;8.00;98.20;;;;;;4978425;28;20951;-78
2022/11/05 08:03:28;;;;;;;1.60;1.30;;;8.10;98.20;;;;;;4998892;28;20998;-78
2022/11/05 08:05:55;;;;;;;1.60;1.20;;;8.20;98.20;;;;;;4980997;28;20456;-78
2022/11/05 08:08:22;;;;;;;1.60;1.23;;;8.30;98.20;;;;;;5014654;28;20491;-78
2022/11/05 08:10:49;;;;;;;1.60;1.27;;;8.40;98.20;;;;;;4978381;28;20457;-78
2022/11/05 08:13:16;;;;;;;1.63;1.30;;;8.50;98.20;;;;;;5017398;28;20544;-78
2022/11/05 08:15:43;;;;;;;1.60;1.20;;;8.60;98.20;;;;;;4988589;28;20468;-78
2022/11/05 08:18:12;;;;;;;1.67;1.20;;;8.70;98.20;;;;;;5007499;28;20565;-77
2022/11/05 08:20:41;;;;;;;1.70;1.30;;;8.80;98.20;;;;;;4988907;28;20461;-77
2022/11/05 08:23:09;;;;;;;1.60;1.20;;;8.90;98.20;;;;;;4997573;28;20510;-77
2022/11/05 08:25:36;;;;;;;1.63;1.30;;;9.00;98.20;;;;;;4986683;28;20915;-77
2022/11/05 08:28:05;;;;;;;1.60;1.20;;;9.10;98.20;;;;;;5005571;28;20489;-77
2022/11/05 08:30:32;;;;;;;1.60;1.20;;;9.10;98.20;;;;;;4987377;28;20548;-77
2022/11/05 08:33:01;;;;;;;1.60;1.20;;;9.20;98.20;;;;;;4993026;28;20483;-78
2022/11/05 08:35:29;;;;;;;1.60;1.20;;;9.20;98.20;;;;;;4987085;28;20472;-77
2022/11/05 08:37:59;;;;;;;1.60;1.20;;;9.30;98.20;;;;;;5008137;28;20814;-77
2022/11/05 08:40:26;;;;;;;1.60;1.20;;;9.40;98.20;;;;;;4984790;28;20471;-77
2022/11/05 08:42:56;;;;;;;2.03;1.83;;;9.50;98.20;;;;;;4989256;28;20485;-79
2022/11/05 08:45:23;;;;;;;1.60;1.20;;;9.60;98.20;;;;;;4987416;28;20491;-77
2022/11/05 08:47:50;;;;;;;2.33;2.13;;;9.70;98.20;;;;;;5004904;28;20487;-76
2022/11/05 08:50:17;;;;;;;1.60;1.20;;;9.80;98.20;;;;;;4980606;28;20469;-76
2022/11/05 08:52:44;;;;;;;1.60;1.13;;;9.90;98.20;;;;;;5003590;28;20866;-76
2022/11/05 08:55:12;;;;;;;1.70;1.30;;;10.00;98.20;;;;;;4985725;28;20469;-77
2022/11/05 08:57:39;;;;;;;1.80;1.50;;;10.10;98.20;;;;;;5002115;28;21046;-77
2022/11/05 09:00:08;;;;;;;1.60;1.20;;;10.20;98.20;;;;;;4987218;28;20497;-76
2022/11/05 09:02:35;;;;;;;1.60;1.20;;;10.30;98.20;;;;;;5000632;28;20485;-77
2022/11/05 09:05:02;;;;;;;1.60;1.20;;;10.40;98.20;;;;;;4988187;28;20469;-78
2022/11/05 09:07:29;;;;;;;1.60;1.10;;;10.60;98.20;;;;;;4997477;28;20574;-77
2022/11/05 09:09:56;;;;;;;1.60;1.17;;;10.70;98.20;;;;;;4989818;28;20465;-77
2022/11/05 09:12:24;;;;;;;1.70;1.30;;;10.70;98.20;;;;;;4997540;28;20554;-77
2022/11/05 09:14:52;;;;;;;1.60;1.20;;;10.80;98.20;;;;;;4990663;28;20461;-76
2022/11/05 09:17:26;;;;;;;1.60;1.10;;;10.90;98.20;;;;;;4997471;28;20897;-77
2022/11/05 09:19:53;;;;;;;1.60;1.20;;;11.00;98.20;;;;;;4988336;28;21288;-77
2022/11/05 09:22:21;;;;;;;1.60;1.13;;;11.10;98.20;;;;;;4981444;28;20491;-77
2022/11/05 09:24:48;;;;;;;1.60;1.10;;;11.20;98.20;;;;;;4989865;28;20465;-76
2022/11/05 09:27:15;;;;;;;1.60;1.10;;;11.30;98.20;;;;;;5001770;28;20838;-77
2022/11/05 09:29:43;;;;;;;1.60;1.20;;;11.40;98.20;;;;;;4996800;28;20517;-78
2022/11/05 09:32:11;;;;;;;1.60;1.10;;;11.50;98.20;;;;;;4985764;28;20480;-81
2022/11/05 09:34:38;;;;;;;1.60;1.03;;;11.60;98.20;;;;;;4989798;28;20501;-78
2022/11/05 09:37:05;;;;;;;1.60;1.10;;;11.60;98.20;;;;;;4999175;28;21032;-78
2022/11/05 09:39:47;;;;;;;1.60;1.13;;;11.70;98.20;;;;;;5008022;28;20558;-81
2022/11/05 09:42:19;;;;;;;1.60;1.00;;;11.80;98.20;;;;;;4985126;28;20481;-78
2022/11/05 09:44:51;;;;;;;1.60;1.10;;;12.00;98.20;;;;;;4987934;28;20535;-79
2022/11/05 09:47:23;;;;;;;1.60;1.10;;;12.10;98.20;;;;;;5002059;28;20507;-81
2022/11/05 09:49:53;;;;;;;1.60;1.07;;;12.10;98.20;;;;;;4993531;28;20580;-78
2022/11/05 09:52:24;;;;;;;1.60;1.00;;;12.20;98.20;;;;;;4999099;28;20519;-79
2022/11/05 09:54:53;;;;;;;1.60;1.10;;;12.40;98.20;;;;;;4995122;28;20468;-79
2022/11/05 09:57:24;;;;;;;1.60;1.00;;;12.50;98.20;;;;;;4999348;28;20483;-79
2022/11/05 09:59:55;;;;;;;1.60;1.10;;;12.60;98.20;;;;;;4995346;28;20926;-78
2022/11/05 10:02:25;;;;;;;1.60;1.03;;;12.70;98.20;;;;;;5002013;28;21088;-79
2022/11/05 10:04:56;;;;;;;1.60;1.10;;;12.80;98.20;;;;;;4993490;28;20469;-79
2022/11/05 10:07:26;;;;;;;1.60;1.00;;;12.90;98.20;;;;;;5002960;28;20490;-78
2022/11/05 10:09:57;;;;;;;1.60;1.00;;;13.00;98.20;;;;;;4993210;28;20970;-79
2022/11/05 10:12:30;;;;;;;1.60;1.00;;;13.10;98.20;;;;;;5002448;28;20489;-79
2022/11/05 10:15:07;;;;;;;1.60;1.10;;;13.20;98.20;;;;;;4993436;28;20464;-79
2022/11/05 10:17:37;;;;;;;1.60;1.00;;;13.30;98.20;;;;;;5005986;28;20884;-79
2022/11/05 10:20:11;;;;;;;1.60;1.00;;;13.40;98.20;;;;;;4990842;28;20465;-79
2022/11/05 10:22:39;;;;;;;1.60;1.00;;;13.50;98.20;;;;;;5019246;28;21047;-80
2022/11/05 10:25:17;;;;;;;1.60;1.00;;;13.50;98.20;;;;;;4997852;28;20465;-79
2022/11/05 10:27:50;;;;;;;1.60;1.00;;;13.60;98.20;;;;;;5009156;28;20537;-79
2022/11/05 10:30:19;;;;;;;1.60;1.00;;;13.70;98.20;;;;;;4988984;28;20468;-79
2022/11/05 10:32:48;;;;;;;1.60;1.00;;;13.80;98.20;;;;;;5007349;28;20483;-80
2022/11/05 10:38:01;;;;;;;1.60;1.00;;;13.90;98.20;;;;;;5028450;22;21771;-76
2022/11/05 10:40:37;;;;;;;1.60;1.00;;;14.00;98.20;;;;;;4985319;28;20548;-77
2022/11/05 10:43:08;;;;;;;1.67;1.13;;;14.00;98.20;;;;;;4987419;28;20705;-76
2022/11/05 10:45:49;;;;;;;1.60;1.00;;;13.90;98.20;;;;;;4988776;28;20463;-79
2022/11/05 10:48:41;;;;;;;1.60;1.23;;;13.90;98.20;;;;;;4992545;28;20477;-77
2022/11/05 10:51:11;;;;;;;1.60;1.10;;;13.80;98.20;;;;;;4980640;28;20492;-78
2022/11/05 10:53:49;;;;;;;1.50;1.00;;;13.90;98.20;;;;;;5004504;28;20855;-78
2022/11/05 10:56:31;;;;;;;1.93;1.10;;;14.00;98.20;;;;;;4977326;28;21010;-77
2022/11/05 10:59:01;;;;;;;1.57;1.00;;;14.00;98.20;;;;;;4984127;28;20747;-77
2022/11/05 11:01:31;;;;;;;1.60;1.00;;;14.10;98.20;;;;;;4981083;28;20929;-75
2022/11/05 11:04:16;;;;;;;1.57;1.00;;;14.20;98.20;;;;;;4997269;28;21037;-76
2022/11/05 11:06:49;;;;;;;1.53;1.00;;;14.40;98.20;;;;;;4980871;28;20833;-76
2022/11/05 11:09:25;;;;;;;1.57;1.00;;;14.60;98.20;;;;;;4984782;28;20697;-76
2022/11/05 11:12:00;;;;;;;1.60;1.00;;;14.70;98.20;;;;;;4978127;28;20489;-75
2022/11/05 11:14:28;;;;;;;1.60;1.00;;;14.90;98.20;;;;;;4983864;28;20467;-75
2022/11/05 11:17:16;;;;;;;1.60;1.00;;;15.00;98.20;;;;;;4986659;28;20511;-75
2022/11/05 11:19:44;;;;;;;1.70;1.20;;;14.90;98.20;;;;;;4990558;28;20488;-76
2022/11/05 11:22:19;;;;;;;1.60;1.00;;;14.80;98.20;;;;;;4986994;28;20476;-76
2022/11/05 11:24:48;;;;;;;1.50;0.90;;;14.50;98.20;;;;;;4989104;28;20538;-76
2022/11/05 11:27:21;;;;;;;1.53;0.90;;;14.40;98.20;;;;;;4972183;28;20493;-76
2022/11/05 11:29:54;;;;;;;1.57;1.00;;;14.30;98.20;;;;;;4982024;28;20482;-76
2022/11/05 11:32:27;;;;;;;1.57;1.00;;;14.20;98.20;;;;;;4977042;28;21001;-77
2022/11/05 11:34:56;;;;;;;1.57;1.00;;;14.20;98.20;;;;;;4990072;28;20902;-77
2022/11/05 11:37:26;;;;;;;1.57;1.00;;;14.20;98.20;;;;;;4989907;28;20499;-77
2022/11/05 11:39:56;;;;;;;1.57;1.00;;;14.20;98.20;;;;;;4988333;28;20507;-74
2022/11/05 11:42:29;;;;;;;1.53;1.00;;;14.20;98.20;;;;;;4970433;28;20481;-74
2022/11/05 11:44:59;;;;;;;1.57;1.00;;;14.20;98.20;;;;;;4987249;28;20489;-74
2022/11/05 11:47:28;;;;;;;1.53;0.90;;;14.20;98.20;;;;;;4976133;28;20997;-74
2022/11/05 11:49:57;;;;;;;1.60;1.00;;;14.10;98.20;;;;;;4986936;28;20484;-74
2022/11/05 11:52:28;;;;;;;1.60;0.90;;;14.10;98.20;;;;;;4996503;28;20490;-74
2022/11/05 11:55:18;;;;;;;1.70;1.10;;;14.10;98.20;;;;;;4992622;28;20461;-74
2022/11/05 11:57:47;;;;;;;1.57;1.00;;;14.10;98.20;;;;;;4998610;28;21004;-74
2022/11/05 12:00:15;;;;;;;1.53;0.90;;;14.20;98.20;;;;;;4988021;28;20461;-73
2022/11/05 12:02:59;;;;;;;1.60;1.03;;;14.20;98.20;;;;;;4991072;28;20999;-74
2022/11/05 12:05:32;;;;;;;1.57;1.00;;;14.20;98.20;;;;;;4988199;28;20469;-74
2022/11/05 12:08:08;;;;;;;1.57;1.00;;;14.10;98.20;;;;;;4989845;28;20499;-74
2022/11/05 12:10:51;;;;;;;1.50;1.00;;;14.10;98.20;;;;;;4986765;28;20869;-76
2022/11/05 12:14:09;;;;;;;1.50;1.00;;;14.10;98.20;;;;;;4975690;28;20476;-75
2022/11/05 12:17:01;;;;;;;1.57;0.97;;;14.10;98.20;;;;;;4974199;28;20498;-76
2022/11/05 12:19:44;;;;;;;1.57;1.00;;;14.00;98.20;;;;;;4993595;28;20499;-76
2022/11/05 12:22:21;;;;;;;1.53;1.00;;;14.00;98.20;;;;;;4967797;28;20516;-76
2022/11/05 12:25:14;;;;;;;1.57;1.00;;;14.00;98.20;;;;;;4981683;28;20484;-75
2022/11/05 12:27:57;;;;;;;1.60;1.00;;;14.00;98.20;;;;;;4993018;28;20855;-76
2022/11/05 12:30:24;;;;;;;1.60;1.00;;;14.00;98.20;;;;;;4985174;28;20504;-76
2022/11/05 12:33:16;;;;;;;1.53;1.00;;;13.90;98.20;;;;;;4996490;28;20489;-77
2022/11/05 12:36:02;;;;;;;1.60;1.00;;;13.80;98.20;;;;;;4986182;28;20505;-76
2022/11/05 12:38:48;;;;;;;1.53;1.00;;;13.80;98.20;;;;;;4978516;28;20984;-79
2022/11/05 12:41:23;;;;;;;1.53;1.00;;;13.80;98.20;;;;;;4974909;28;20488;-77
2022/11/05 12:44:16;;;;;;;1.60;1.03;;;13.70;98.20;;;;;;4976432;28;21367;-75
2022/11/05 12:46:56;;;;;;;1.60;1.00;;;13.70;98.20;;;;;;4981375;28;21393;-75
2022/11/05 12:49:47;;;;;;;1.57;1.00;;;13.60;98.20;;;;;;4995080;28;20952;-75
2022/11/05 12:52:34;;;;;;;1.50;1.00;;;13.60;98.20;;;;;;4985822;28;20857;-75
2022/11/05 12:55:05;;;;;;;1.53;1.00;;;13.60;98.20;;;;;;4989330;28;20524;-75
2022/11/05 12:57:36;;;;;;;1.53;1.00;;;13.60;98.20;;;;;;4972324;28;20765;-75
2022/11/05 13:00:07;;;;;;;1.53;1.00;;;13.70;98.20;;;;;;4992600;28;20485;-76
2022/11/05 13:02:39;;;;;;;1.57;1.00;;;13.70;98.20;;;;;;4997716;28;20483;-76
2022/11/05 13:05:13;;;;;;;1.53;1.00;;;13.70;98.20;;;;;;4993937;28;20538;-77
2022/11/05 13:07:47;;;;;;;1.57;1.00;;;13.70;98.20;;;;;;4999738;28;20724;-75
2022/11/05 13:10:23;;;;;;;1.57;1.00;;;13.60;98.20;;;;;;4988633;28;20946;-75
2022/11/05 13:13:01;;;;;;;1.57;1.00;;;13.60;98.20;;;;;;4991877;28;20490;-76
2022/11/05 13:15:31;;;;;;;1.57;1.00;;;13.50;98.20;;;;;;4992284;28;20468;-76
2022/11/05 13:18:01;;;;;;;1.53;1.00;;;13.60;98.20;;;;;;5000534;28;20489;-78
2022/11/05 13:20:32;;;;;;;1.53;1.00;;;13.60;98.20;;;;;;4981847;28;20854;-76
2022/11/05 13:23:06;;;;;;;1.60;1.10;;;13.60;98.20;;;;;;4966676;28;20855;-76
2022/11/05 13:25:38;;;;;;;1.50;1.00;;;13.60;98.20;;;;;;4984467;28;20904;-76
2022/11/05 13:28:12;;;;;;;1.50;1.00;;;13.60;98.20;;;;;;4963228;28;20492;-76
2022/11/05 13:30:44;;;;;;;1.50;1.00;;;13.60;98.20;;;;;;4985664;28;20548;-76
2022/11/05 13:33:14;;;;;;;1.60;1.10;;;13.60;98.20;;;;;;4989057;28;20487;-76
2022/11/05 13:35:44;;;;;;;1.57;1.00;;;13.70;98.20;;;;;;4984888;28;20465;-76
2022/11/05 13:41:20;;;;;;;1.57;1.00;;;13.70;98.20;;;;;;4974712;28;20456;-75
2022/11/05 13:44:05;;;;;;;1.53;1.00;;;13.70;98.20;;;;;;4983605;28;20485;-76
2022/11/05 13:46:57;;;;;;;1.53;1.00;;;13.60;98.20;;;;;;4982132;28;20499;-76
2022/11/05 13:49:48;;;;;;;1.60;1.00;;;13.60;98.20;;;;;;4992339;28;20587;-76
2022/11/05 13:52:39;;;;;;;1.53;1.00;;;13.60;98.20;;;;;;4990489;28;20543;-77
2022/11/05 13:55:36;;;;;;;1.53;1.00;;;13.50;98.20;;;;;;4989308;28;20537;-77
2022/11/05 13:58:30;;;;;;;1.57;1.00;;;13.40;98.20;;;;;;4988945;28;20533;-77
2022/11/05 14:01:09;;;;;;;1.57;1.00;;;13.30;98.20;;;;;;4975660;28;20465;-76